Time;durP1;ratioP1;P1;durP2;ratioP2;P2;SDS_P1;SDS_P2;PMS_P1;PMS_P2;Temp;Humidity;BMP_temperature;BMP_pressure;BME280_temperature;BME280_humidity;BME280_pressure;Samples;Min_cycle;Max_cycle;Signal;HPM_P1;HPM_P2
2022/09/21 00:00:38;;;;;;;9.60;6.20;;;;;;;8.38;82.36;98938.73;434209;1265;97821;-39
2022/09/21 00:11:07;;;;;;;7.90;5.80;;;;;;;8.22;82.61;98942.88;434518;1264;112866;-39
2022/09/21 00:21:17;;;;;;;8.60;5.70;;;;;;;8.07;82.52;98945.83;434260;1265;108560;-40
2022/09/21 00:31:24;;;;;;;9.80;6.40;;;;;;;7.96;82.58;98950.99;434342;1264;97875;-40
2022/09/21 00:41:33;;;;;;;10.30;7.50;;;;;;;7.98;82.75;98954.80;434315;1265;111160;-40
2022/09/21 00:51:41;;;;;;;7.40;6.30;;;;;;;7.93;82.82;98949.05;434281;1265;107744;-39
2022/09/21 01:01:49;;;;;;;9.30;5.70;;;;;;;7.93;82.96;98953.10;434068;1263;97885;-39
2022/09/21 01:11:58;;;;;;;13.30;6.60;;;;;;;7.90;83.29;98957.04;433905;1265;108902;-42
2022/09/21 01:22:14;;;;;;;14.10;6.90;;;;;;;7.72;83.33;98964.16;434138;1265;97980;-40
2022/09/21 01:42:35;;;;;;;11.30;6.60;;;;;;;7.55;83.41;98972.17;434029;1266;108791;-40
2022/09/21 01:52:49;;;;;;;10.30;5.90;;;;;;;7.57;83.44;98967.91;434178;1267;96688;-40
2022/09/21 02:02:58;;;;;;;7.50;6.00;;;;;;;7.57;83.53;98976.85;434076;1266;111231;-40
2022/09/21 02:13:05;;;;;;;;;;;;;;;7.60;83.76;98984.54;434164;1266;108841;-40
2022/09/21 02:23:15;;;;;;;9.20;6.70;;;;;;;7.63;83.69;98988.23;434771;1266;97900;-40
2022/09/21 02:33:25;;;;;;;7.70;6.90;;;;;;;7.60;84.02;98993.17;434358;1267;107842;-40
2022/09/21 02:43:30;;;;;;;9.00;7.50;;;;;;;7.59;84.01;98997.86;434157;1266;108814;-40
2022/09/21 02:53:40;;;;;;;10.80;6.60;;;;;;;7.61;84.02;99002.53;433630;1268;98201;-40
2022/09/21 03:03:48;;;;;;;14.10;8.50;;;;;;;7.70;84.16;99010.98;433693;1268;108806;-39
2022/09/21 03:13:55;;;;;;;13.70;10.30;;;;;;;7.80;84.23;99019.09;434203;1267;97458;-38
2022/09/21 03:24:04;;;;;;;12.70;10.80;;;;;;;7.90;84.51;99022.33;434160;1267;111082;-38
2022/09/21 03:44:18;;;;;;;20.30;14.60;;;;;;;8.13;84.73;99033.35;434329;1266;97007;-39
2022/09/21 03:54:26;;;;;;;17.50;13.60;;;;;;;8.20;84.79;99037.55;434403;1265;108891;-40
2022/09/21 04:04:32;;;;;;;18.20;12.70;;;;;;;8.25;84.89;99044.02;433775;1265;98169;-41
2022/09/21 04:14:39;;;;;;;24.00;13.20;;;;;;;8.25;85.03;99055.04;434253;1266;111072;-40
2022/09/21 04:24:46;;;;;;;20.70;13.70;;;;;;;8.28;85.13;99049.95;434147;1267;108773;-40
2022/09/21 04:34:54;;;;;;;21.00;15.50;;;;;;;8.36;85.29;99058.81;434276;1266;97488;-40
2022/09/21 04:45:01;;;;;;;26.70;17.10;;;;;;;8.35;85.31;99058.56;433899;1268;109145;-40
2022/09/21 04:55:09;;;;;;;30.40;22.20;;;;;;;8.28;85.45;99062.59;433814;1266;97881;-41
2022/09/21 05:05:16;;;;;;;36.30;23.40;;;;;;;8.29;85.60;99066.98;434710;1266;96674;-40
2022/09/21 05:15:24;;;;;;;23.10;16.50;;;;;;;8.41;85.49;99073.71;434411;1266;109289;-41
2022/09/21 05:25:31;;;;;;;24.70;16.00;;;;;;;8.51;85.44;99079.02;434333;1266;97881;-40
2022/09/21 05:35:46;;;;;;;22.00;14.10;;;;;;;8.55;85.62;99084.66;433902;1268;109648;-41
2022/09/21 05:45:56;;;;;;;19.50;12.90;;;;;;;8.60;85.71;99087.48;433935;1266;108903;-41
2022/09/21 05:56:10;;;;;;;16.10;11.90;;;;;;;8.65;85.82;99097.29;434040;1266;97897;-41
2022/09/21 06:06:17;;;;;;;15.00;10.70;;;;;;;8.70;85.86;99096.74;433830;1268;108768;-41
2022/09/21 06:16:23;;;;;;;13.50;8.30;;;;;;;8.81;86.03;99098.23;433844;1266;265104;-40
2022/09/21 06:26:31;;;;;;;15.90;9.80;;;;;;;8.88;86.19;99100.76;433841;1268;111032;-41
2022/09/21 06:46:44;;;;;;;7.50;6.20;;;;;;;8.88;86.28;99120.48;434418;1267;97490;-41
2022/09/21 06:56:50;;;;;;;13.10;8.60;;;;;;;8.99;86.24;99125.66;433770;1267;107730;-40
2022/09/21 07:06:57;;;;;;;18.90;13.70;;;;;;;9.06;86.54;99134.36;433885;1268;98197;-40
2022/09/21 07:17:07;;;;;;;20.10;15.10;;;;;;;9.07;86.44;99148.11;434141;1266;110978;-39
2022/09/21 07:27:21;;;;;;;24.30;13.40;;;;;;;9.10;86.59;99151.59;434337;1266;109214;-40
2022/09/21 07:37:31;;;;;;;21.00;13.60;;;;;;;9.30;86.73;99158.15;434165;1268;97490;-39
2022/09/21 07:47:38;;;;;;;14.00;11.30;;;;;;;9.40;86.68;99165.45;433830;1268;107418;-39
2022/09/21 08:08:11;;;;;;;10.90;9.50;;;;;;;9.80;86.96;99176.02;433772;1268;111236;-39
2022/09/21 08:18:16;;;;;;;17.30;11.60;;;;;;;9.94;87.10;99178.94;434246;1267;108144;-41
2022/09/21 08:28:22;;;;;;;18.60;14.00;;;;;;;10.09;87.02;99176.65;434042;1266;97906;-40
2022/09/21 08:38:35;;;;;;;27.90;16.00;;;;;;;10.01;87.15;99182.69;434291;1266;109470;-39
2022/09/21 08:48:48;;;;;;;19.00;14.90;;;;;;;10.09;87.05;99187.80;434216;1266;108808;-39
2022/09/21 08:58:55;;;;;;;16.50;13.40;;;;;;;10.39;87.19;99188.85;433985;1268;97483;-39
2022/09/21 09:09:10;;;;;;;19.90;14.60;;;;;;;10.62;87.12;99188.36;434217;1268;108906;-39
2022/09/21 09:19:22;;;;;;;13.40;11.00;;;;;;;11.13;87.27;99186.13;434426;1267;97907;-39
2022/09/21 09:29:30;;;;;;;15.10;11.20;;;;;;;11.44;87.09;99181.41;434106;1266;111146;-39
2022/09/21 09:39:38;;;;;;;12.20;8.70;;;;;;;11.86;87.13;99175.59;434282;1268;109124;-40
2022/09/21 09:49:44;;;;;;;9.10;7.80;;;;;;;12.39;86.65;99170.19;433302;1268;96583;-40
2022/09/21 10:10:01;;;;;;;10.90;8.50;;;;;;;12.74;85.93;99167.04;434105;1266;108791;-40
2022/09/21 10:20:14;;;;;;;7.30;4.80;;;;;;;12.68;85.38;99159.95;434103;1268;97981;-39
2022/09/21 10:30:40;;;;;;;8.20;5.30;;;;;;;12.89;85.09;99157.49;434539;1268;108248;-39
2022/09/21 10:40:48;;;;;;;9.70;6.40;;;;;;;13.32;84.45;99155.60;434357;1268;98012;-40
2022/09/21 10:50:57;;;;;;;7.90;5.20;;;;;;;13.44;83.78;99160.95;434010;1268;97480;-40
2022/09/21 11:01:23;;;;;;;6.30;3.70;;;;;;;14.29;83.32;99153.63;434007;1266;111826;-39
2022/09/21 11:11:35;;;;;;;4.40;3.90;;;;;;;14.82;82.10;99146.65;434293;1266;108774;-40
2022/09/21 11:21:48;;;;;;;4.30;4.00;;;;;;;14.36;80.28;99145.12;434325;1266;98094;-40
2022/09/21 11:32:10;;;;;;;7.40;4.10;;;;;;;14.26;80.22;99142.09;434135;1268;111145;-40
2022/09/21 11:42:25;;;;;;;5.70;4.40;;;;;;;14.33;79.16;99131.72;434207;1266;109125;-41
2022/09/21 11:52:46;;;;;;;3.80;3.30;;;;;;;14.04;78.43;99132.98;434286;1267;97885;-40
2022/09/21 12:03:28;;;;;;;5.40;2.70;;;;;;;13.79;78.01;99139.46;434098;1267;110922;-40
2022/09/21 12:13:40;;;;;;;5.80;3.90;;;;;;;13.85;77.90;99132.01;433571;1267;108461;-40
2022/09/21 12:34:01;;;;;;;6.50;3.30;;;;;;;14.06;77.19;99120.58;433987;1268;97832;-41
2022/09/21 12:44:12;;;;;;;4.80;2.20;;;;;;;14.20;77.41;99116.60;434174;1266;111176;-41
2022/09/21 12:54:19;;;;;;;4.80;3.10;;;;;;;14.07;76.74;99111.55;433887;1267;107557;-40
2022/09/21 13:04:37;;;;;;;5.50;2.90;;;;;;;13.67;76.58;99115.42;434287;1266;97983;-41
2022/09/21 13:14:47;;;;;;;5.30;1.90;;;;;;;13.86;76.53;99103.90;434081;1266;99174;-42
2022/09/21 13:25:02;;;;;;;6.50;1.80;;;;;;;14.33;75.85;99097.64;434021;1266;109661;-42
2022/09/21 13:35:41;;;;;;;1.50;1.30;;;;;;;14.38;74.92;99094.55;434146;1266;108324;-42
2022/09/21 13:45:52;;;;;;;;;;;;;;;13.96;74.86;99103.95;434210;1266;97899;-40
2022/09/21 13:56:11;;;;;;;3.30;2.20;;;;;;;13.48;75.44;99110.70;434027;1266;111167;-41
2022/09/21 14:06:19;;;;;;;2.60;2.30;;;;;;;13.30;76.02;99110.20;434040;1268;108878;-39
2022/09/21 14:16:59;;;;;;;2.40;2.20;;;;;;;13.44;76.28;99102.13;434130;1266;97440;-39
2022/09/21 14:27:15;;;;;;;4.50;2.20;;;;;;;13.56;75.55;99102.48;434448;1265;97904;-40
2022/09/21 14:37:38;;;;;;;3.40;2.90;;;;;;;13.50;74.97;99103.24;433844;1267;111182;-39
2022/09/21 14:47:55;;;;;;;3.50;1.80;;;;;;;13.69;74.71;99093.23;434160;1266;107040;-39
2022/09/21 14:58:13;;;;;;;1.20;1.00;;;;;;;13.83;74.51;99092.91;434038;1266;97883;-41
2022/09/21 15:19:06;;;;;;;2.60;2.00;;;;;;;13.74;73.94;99092.75;433447;1268;111032;-39
2022/09/21 15:29:12;;;;;;;4.80;3.50;;;;;;;13.27;73.26;99105.55;434307;1266;108844;-39
2022/09/21 15:39:28;;;;;;;6.70;3.60;;;;;;;12.97;73.55;99106.81;434658;1268;109010;-40
2022/09/21 15:49:36;;;;;;;10.90;3.10;;;;;;;12.73;73.81;99109.95;434090;1265;96638;-41
2022/09/21 15:59:43;;;;;;;15.10;8.30;;;;;;;12.48;74.24;99120.21;434064;1267;108143;-43
2022/09/21 16:09:51;;;;;;;8.10;3.30;;;;;;;12.37;74.67;99123.27;433986;1266;97759;-42
2022/09/21 16:20:18;;;;;;;8.00;4.80;;;;;;;12.13;74.94;99135.50;433830;1267;97478;-41
2022/09/21 16:30:45;;;;;;;8.00;4.60;;;;;;;11.87;75.30;99138.86;434231;1268;111691;-39
2022/09/21 16:40:53;;;;;;;6.40;3.70;;;;;;;11.73;75.69;99145.83;434107;1267;108878;-39
2022/09/21 16:51:01;;;;;;;9.40;5.40;;;;;;;11.67;76.14;99149.95;434315;1266;97881;-41
2022/09/21 17:01:11;;;;;;;21.90;11.60;;;;;;;11.52;76.53;99172.74;433923;1268;109057;-39
2022/09/21 17:11:19;;;;;;;17.80;7.60;;;;;;;11.28;77.05;99181.89;434114;1267;97939;-40
2022/09/21 17:21:27;;;;;;;7.60;6.00;;;;;;;11.02;77.22;99180.02;433972;1267;111070;-39
2022/09/21 17:31:37;;;;;;;15.60;10.80;;;;;;;10.94;77.79;99185.71;434240;1267;108691;-41
2022/09/21 18:02:13;;;;;;;7.90;5.10;;;;;;;10.63;78.75;99202.50;434640;1266;108253;-41
2022/09/21 18:12:35;;;;;;;6.30;4.40;;;;;;;10.45;78.98;99211.47;434203;1268;97446;-40
2022/09/21 18:22:41;;;;;;;7.20;4.90;;;;;;;10.43;79.29;99220.92;434094;1267;228405;-40
2022/09/21 18:32:50;;;;;;;11.60;5.90;;;;;;;10.38;79.48;99217.16;434156;1265;97884;-40
2022/09/21 18:42:56;;;;;;;7.30;4.30;;;;;;;10.40;79.89;99216.62;433935;1268;111273;-40
2022/09/21 18:53:13;;;;;;;5.20;3.80;;;;;;;10.44;80.06;99215.30;434498;1266;108626;-40
2022/09/21 19:03:21;;;;;;;10.90;5.80;;;;;;;10.42;80.41;99216.86;434033;1265;97888;-45
2022/09/21 19:23:37;;;;;;;;;;;;;;;10.19;80.64;99218.16;434069;1266;109059;-40
2022/09/21 19:33:44;;;;;;;16.90;8.70;;;;;;;10.12;80.79;99220.45;434097;1268;97885;-39
2022/09/21 19:43:54;;;;;;;31.70;16.70;;;;;;;10.15;80.97;99218.58;433860;1268;111039;-41
2022/09/21 20:04:33;;;;;;;10.50;6.90;;;;;;;10.25;81.45;99221.69;434334;1266;97909;-40
2022/09/21 20:14:38;;;;;;;12.10;6.90;;;;;;;10.13;81.48;99226.27;434156;1266;109718;-39
2022/09/21 20:34:51;;;;;;;28.20;14.10;;;;;;;9.94;81.62;99226.05;434231;1267;97488;-40
2022/09/21 20:44:58;;;;;;;43.90;18.10;;;;;;;9.90;81.66;99218.50;434028;1268;111134;-41
2022/09/21 21:05:12;;;;;;;50.90;24.30;;;;;;;9.78;81.94;99225.92;433784;1267;98157;-40
2022/09/21 21:15:18;;;;;;;45.40;23.20;;;;;;;9.66;81.98;99229.53;434065;1265;108505;-39
2022/09/21 21:25:25;;;;;;;29.40;18.80;;;;;;;9.49;82.12;99227.72;434372;1266;109831;-39
2022/09/21 21:35:32;;;;;;;30.60;22.40;;;;;;;9.31;82.10;99227.05;434484;1266;97480;-39
2022/09/21 21:45:38;;;;;;;14.30;8.00;;;;;;;9.20;82.13;99219.55;434070;1266;108893;-40
2022/09/21 21:55:46;;;;;;;12.50;9.80;;;;;;;9.20;82.37;99211.02;433272;1267;97903;-39
2022/09/21 22:05:56;;;;;;;11.50;7.80;;;;;;;9.21;82.42;99204.49;434612;1267;110022;-39
2022/09/21 22:26:11;;;;;;;12.70;8.30;;;;;;;8.89;82.56;99196.84;433986;1266;98124;-40
2022/09/21 22:36:20;;;;;;;16.50;9.20;;;;;;;8.65;82.36;99192.88;434376;1266;111622;-39
2022/09/21 22:46:29;;;;;;;12.40;8.50;;;;;;;8.46;82.41;99185.61;434158;1267;108867;-39
2022/09/21 22:56:37;;;;;;;30.60;17.40;;;;;;;8.30;82.49;99192.76;434279;1267;97458;-39
2022/09/21 23:06:45;;;;;;;18.00;10.50;;;;;;;8.22;82.67;99188.06;434201;1267;108850;-39
2022/09/21 23:26:59;;;;;;;23.20;13.70;;;;;;;7.94;82.69;99179.19;434200;1266;97529;-40
2022/09/21 23:37:06;;;;;;;15.20;10.40;;;;;;;7.67;82.58;99186.00;434096;1266;111164;-40
2022/09/21 23:47:13;;;;;;;22.50;14.00;;;;;;;7.61;82.91;99188.09;434422;1266;109562;-40
2022/09/21 23:57:20;;;;;;;14.10;9.40;;;;;;;7.62;83.03;99186.84;434488;1265;96969;-40
